sensor_id;sensor_type;location;lat;lon;timestamp;P1;durP1;ratioP1;P2;durP2;ratioP2
65150;SDS011;51918;51.856;0.150;2022-09-09T00:01:23;7.13;;;2.17;;
65150;SDS011;51918;51.856;0.150;2022-09-09T00:06:35;10.23;;;2.72;;
65150;SDS011;51918;51.856;0.150;2022-09-09T00:11:39;12.50;;;3.05;;
65150;SDS011;51918;51.856;0.150;2022-09-09T00:16:45;9.75;;;2.45;;
65150;SDS011;51918;51.856;0.150;2022-09-09T00:21:52;10.02;;;2.70;;
65150;SDS011;51918;51.856;0.150;2022-09-09T00:27:03;9.18;;;2.63;;
65150;SDS011;51918;51.856;0.150;2022-09-09T00:32:11;8.18;;;2.28;;
65150;SDS011;51918;51.856;0.150;2022-09-09T00:37:13;6.80;;;2.20;;
65150;SDS011;51918;51.856;0.150;2022-09-09T00:42:15;11.48;;;2.72;;
65150;SDS011;51918;51.856;0.150;2022-09-09T00:47:25;8.65;;;3.03;;
65150;SDS011;51918;51.856;0.150;2022-09-09T00:52:45;14.50;;;2.85;;
65150;SDS011;51918;51.856;0.150;2022-09-09T00:57:53;7.07;;;2.55;;
65150;SDS011;51918;51.856;0.150;2022-09-09T01:03:02;9.80;;;2.60;;
65150;SDS011;51918;51.856;0.150;2022-09-09T01:08:21;9.35;;;2.80;;
65150;SDS011;51918;51.856;0.150;2022-09-09T01:13:36;9.23;;;2.70;;
65150;SDS011;51918;51.856;0.150;2022-09-09T01:18:40;9.38;;;3.30;;
65150;SDS011;51918;51.856;0.150;2022-09-09T01:23:48;10.63;;;3.05;;
65150;SDS011;51918;51.856;0.150;2022-09-09T01:29:08;11.90;;;2.95;;
65150;SDS011;51918;51.856;0.150;2022-09-09T01:34:10;11.90;;;2.88;;
65150;SDS011;51918;51.856;0.150;2022-09-09T01:39:12;8.27;;;2.80;;
65150;SDS011;51918;51.856;0.150;2022-09-09T01:44:15;7.25;;;2.55;;
65150;SDS011;51918;51.856;0.150;2022-09-09T01:49:16;16.40;;;3.20;;
65150;SDS011;51918;51.856;0.150;2022-09-09T01:54:18;10.90;;;2.80;;
65150;SDS011;51918;51.856;0.150;2022-09-09T01:59:24;11.88;;;3.33;;
65150;SDS011;51918;51.856;0.150;2022-09-09T02:04:44;6.43;;;2.90;;
65150;SDS011;51918;51.856;0.150;2022-09-09T02:09:49;7.38;;;3.30;;
65150;SDS011;51918;51.856;0.150;2022-09-09T02:15:00;7.93;;;2.85;;
65150;SDS011;51918;51.856;0.150;2022-09-09T02:20:06;7.82;;;2.85;;
65150;SDS011;51918;51.856;0.150;2022-09-09T02:25:10;9.70;;;3.00;;
65150;SDS011;51918;51.856;0.150;2022-09-09T02:30:16;10.43;;;3.08;;
65150;SDS011;51918;51.856;0.150;2022-09-09T02:35:18;6.20;;;2.75;;
65150;SDS011;51918;51.856;0.150;2022-09-09T02:40:20;8.68;;;2.70;;
65150;SDS011;51918;51.856;0.150;2022-09-09T02:45:23;8.15;;;3.05;;
65150;SDS011;51918;51.856;0.150;2022-09-09T02:50:26;7.00;;;3.50;;
65150;SDS011;51918;51.856;0.150;2022-09-09T02:55:35;15.32;;;4.35;;
65150;SDS011;51918;51.856;0.150;2022-09-09T03:00:40;12.82;;;4.03;;
65150;SDS011;51918;51.856;0.150;2022-09-09T03:05:41;13.30;;;4.30;;
65150;SDS011;51918;51.856;0.150;2022-09-09T03:15:43;9.45;;;4.18;;
65150;SDS011;51918;51.856;0.150;2022-09-09T03:20:43;10.95;;;4.03;;
65150;SDS011;51918;51.856;0.150;2022-09-09T03:25:46;8.85;;;4.13;;
65150;SDS011;51918;51.856;0.150;2022-09-09T03:30:49;9.38;;;4.35;;
65150;SDS011;51918;51.856;0.150;2022-09-09T03:35:49;10.43;;;4.53;;
65150;SDS011;51918;51.856;0.150;2022-09-09T03:40:50;12.68;;;4.80;;
65150;SDS011;51918;51.856;0.150;2022-09-09T03:45:53;8.38;;;4.38;;
65150;SDS011;51918;51.856;0.150;2022-09-09T03:50:54;9.25;;;4.65;;
65150;SDS011;51918;51.856;0.150;2022-09-09T03:55:55;12.98;;;4.55;;
65150;SDS011;51918;51.856;0.150;2022-09-09T04:00:59;9.40;;;4.07;;
65150;SDS011;51918;51.856;0.150;2022-09-09T04:06:01;10.88;;;5.43;;
65150;SDS011;51918;51.856;0.150;2022-09-09T04:11:02;13.13;;;5.03;;
65150;SDS011;51918;51.856;0.150;2022-09-09T04:16:05;14.23;;;5.18;;
65150;SDS011;51918;51.856;0.150;2022-09-09T04:21:06;15.60;;;5.30;;
65150;SDS011;51918;51.856;0.150;2022-09-09T04:26:08;13.63;;;5.47;;
65150;SDS011;51918;51.856;0.150;2022-09-09T04:31:15;10.35;;;6.78;;
65150;SDS011;51918;51.856;0.150;2022-09-09T04:36:16;19.38;;;6.72;;
65150;SDS011;51918;51.856;0.150;2022-09-09T04:41:18;14.73;;;6.25;;
65150;SDS011;51918;51.856;0.150;2022-09-09T04:46:20;14.98;;;6.45;;
65150;SDS011;51918;51.856;0.150;2022-09-09T04:51:20;14.48;;;6.18;;
65150;SDS011;51918;51.856;0.150;2022-09-09T04:56:21;23.45;;;7.43;;
65150;SDS011;51918;51.856;0.150;2022-09-09T05:01:23;18.27;;;6.65;;
65150;SDS011;51918;51.856;0.150;2022-09-09T05:06:24;12.65;;;5.13;;
65150;SDS011;51918;51.856;0.150;2022-09-09T05:11:25;18.80;;;5.78;;
65150;SDS011;51918;51.856;0.150;2022-09-09T05:16:28;12.63;;;5.22;;
65150;SDS011;51918;51.856;0.150;2022-09-09T05:21:29;17.23;;;5.75;;
65150;SDS011;51918;51.856;0.150;2022-09-09T05:26:29;15.40;;;6.22;;
65150;SDS011;51918;51.856;0.150;2022-09-09T05:31:31;13.80;;;5.68;;
65150;SDS011;51918;51.856;0.150;2022-09-09T05:36:32;11.18;;;5.80;;
65150;SDS011;51918;51.856;0.150;2022-09-09T05:46:34;13.40;;;5.73;;
65150;SDS011;51918;51.856;0.150;2022-09-09T05:51:35;16.05;;;6.90;;
65150;SDS011;51918;51.856;0.150;2022-09-09T06:01:37;21.08;;;8.10;;
65150;SDS011;51918;51.856;0.150;2022-09-09T06:06:38;17.77;;;7.35;;
65150;SDS011;51918;51.856;0.150;2022-09-09T06:11:39;17.75;;;7.25;;
65150;SDS011;51918;51.856;0.150;2022-09-09T06:16:41;20.92;;;8.05;;
65150;SDS011;51918;51.856;0.150;2022-09-09T06:21:42;22.13;;;8.15;;
65150;SDS011;51918;51.856;0.150;2022-09-09T06:26:43;21.60;;;7.10;;
65150;SDS011;51918;51.856;0.150;2022-09-09T06:36:45;22.13;;;9.25;;
65150;SDS011;51918;51.856;0.150;2022-09-09T06:46:47;18.90;;;7.97;;
65150;SDS011;51918;51.856;0.150;2022-09-09T06:51:48;18.88;;;6.90;;
65150;SDS011;51918;51.856;0.150;2022-09-09T06:56:48;20.13;;;7.18;;
65150;SDS011;51918;51.856;0.150;2022-09-09T07:01:50;19.20;;;8.07;;
65150;SDS011;51918;51.856;0.150;2022-09-09T07:06:51;19.95;;;7.72;;
65150;SDS011;51918;51.856;0.150;2022-09-09T07:11:51;14.88;;;6.35;;
65150;SDS011;51918;51.856;0.150;2022-09-09T07:16:54;16.35;;;6.45;;
65150;SDS011;51918;51.856;0.150;2022-09-09T07:21:54;16.77;;;6.40;;
65150;SDS011;51918;51.856;0.150;2022-09-09T07:26:55;17.25;;;6.30;;
65150;SDS011;51918;51.856;0.150;2022-09-09T07:31:57;19.42;;;7.00;;
65150;SDS011;51918;51.856;0.150;2022-09-09T07:36:57;21.00;;;7.60;;
65150;SDS011;51918;51.856;0.150;2022-09-09T07:41:58;16.50;;;6.90;;
65150;SDS011;51918;51.856;0.150;2022-09-09T07:52:00;17.83;;;6.57;;
65150;SDS011;51918;51.856;0.150;2022-09-09T07:57:01;17.45;;;6.90;;
65150;SDS011;51918;51.856;0.150;2022-09-09T08:02:03;17.30;;;6.65;;
65150;SDS011;51918;51.856;0.150;2022-09-09T08:07:03;16.95;;;6.25;;
65150;SDS011;51918;51.856;0.150;2022-09-09T08:12:04;14.13;;;6.10;;
65150;SDS011;51918;51.856;0.150;2022-09-09T08:22:07;16.70;;;6.75;;
65150;SDS011;51918;51.856;0.150;2022-09-09T08:27:07;18.15;;;11.70;;
65150;SDS011;51918;51.856;0.150;2022-09-09T08:32:09;16.33;;;10.73;;
65150;SDS011;51918;51.856;0.150;2022-09-09T08:37:10;21.83;;;12.95;;
65150;SDS011;51918;51.856;0.150;2022-09-09T08:47:47;11.85;;;6.28;;
65150;SDS011;51918;51.856;0.150;2022-09-09T08:52:56;12.85;;;5.57;;
65150;SDS011;51918;51.856;0.150;2022-09-09T08:58:11;15.00;;;5.03;;
65150;SDS011;51918;51.856;0.150;2022-09-09T09:03:15;11.98;;;5.43;;
65150;SDS011;51918;51.856;0.150;2022-09-09T09:08:25;10.85;;;4.68;;
65150;SDS011;51918;51.856;0.150;2022-09-09T09:13:32;11.55;;;5.03;;
65150;SDS011;51918;51.856;0.150;2022-09-09T09:18:40;11.02;;;5.22;;
65150;SDS011;51918;51.856;0.150;2022-09-09T09:23:42;12.18;;;5.45;;
65150;SDS011;51918;51.856;0.150;2022-09-09T09:28:48;12.52;;;4.93;;
65150;SDS011;51918;51.856;0.150;2022-09-09T09:33:52;9.23;;;4.03;;
65150;SDS011;51918;51.856;0.150;2022-09-09T09:38:55;10.32;;;4.40;;
65150;SDS011;51918;51.856;0.150;2022-09-09T09:43:56;8.80;;;4.13;;
65150;SDS011;51918;51.856;0.150;2022-09-09T09:48:59;7.68;;;4.38;;
65150;SDS011;51918;51.856;0.150;2022-09-09T09:54:14;7.65;;;3.80;;
65150;SDS011;51918;51.856;0.150;2022-09-09T09:59:22;7.57;;;3.15;;
65150;SDS011;51918;51.856;0.150;2022-09-09T10:04:34;9.52;;;3.33;;
65150;SDS011;51918;51.856;0.150;2022-09-09T10:09:35;7.78;;;3.00;;
65150;SDS011;51918;51.856;0.150;2022-09-09T10:14:36;8.18;;;3.05;;
65150;SDS011;51918;51.856;0.150;2022-09-09T10:19:48;5.03;;;2.40;;
65150;SDS011;51918;51.856;0.150;2022-09-09T10:25:01;5.50;;;3.08;;
65150;SDS011;51918;51.856;0.150;2022-09-09T10:30:12;7.20;;;3.47;;
65150;SDS011;51918;51.856;0.150;2022-09-09T10:40:47;6.55;;;4.18;;
65150;SDS011;51918;51.856;0.150;2022-09-09T10:46:03;7.28;;;3.80;;
65150;SDS011;51918;51.856;0.150;2022-09-09T10:56:33;7.55;;;4.85;;
65150;SDS011;51918;51.856;0.150;2022-09-09T11:01:36;7.63;;;3.65;;
65150;SDS011;51918;51.856;0.150;2022-09-09T11:06:44;5.07;;;2.83;;
65150;SDS011;51918;51.856;0.150;2022-09-09T11:11:50;6.45;;;3.35;;
65150;SDS011;51918;51.856;0.150;2022-09-09T11:16:53;6.50;;;3.22;;
65150;SDS011;51918;51.856;0.150;2022-09-09T11:22:00;3.50;;;2.50;;
65150;SDS011;51918;51.856;0.150;2022-09-09T11:27:08;4.85;;;3.00;;
65150;SDS011;51918;51.856;0.150;2022-09-09T11:32:19;4.97;;;3.53;;
65150;SDS011;51918;51.856;0.150;2022-09-09T11:37:43;4.80;;;2.78;;
65150;SDS011;51918;51.856;0.150;2022-09-09T11:43:08;4.13;;;2.30;;
65150;SDS011;51918;51.856;0.150;2022-09-09T11:48:22;4.05;;;2.53;;
65150;SDS011;51918;51.856;0.150;2022-09-09T11:53:26;4.13;;;2.25;;
65150;SDS011;51918;51.856;0.150;2022-09-09T11:58:27;3.47;;;1.80;;
65150;SDS011;51918;51.856;0.150;2022-09-09T12:03:36;5.45;;;2.10;;
65150;SDS011;51918;51.856;0.150;2022-09-09T12:08:43;4.80;;;2.25;;
65150;SDS011;51918;51.856;0.150;2022-09-09T12:13:51;5.60;;;2.33;;
65150;SDS011;51918;51.856;0.150;2022-09-09T12:19:02;4.25;;;2.35;;
65150;SDS011;51918;51.856;0.150;2022-09-09T12:24:06;5.28;;;3.03;;
65150;SDS011;51918;51.856;0.150;2022-09-09T12:29:13;5.13;;;3.50;;
65150;SDS011;51918;51.856;0.150;2022-09-09T12:34:27;4.10;;;2.28;;
65150;SDS011;51918;51.856;0.150;2022-09-09T12:39:36;3.38;;;1.42;;
65150;SDS011;51918;51.856;0.150;2022-09-09T12:44:49;3.70;;;1.55;;
65150;SDS011;51918;51.856;0.150;2022-09-09T12:49:51;4.20;;;1.50;;
65150;SDS011;51918;51.856;0.150;2022-09-09T12:54:53;3.28;;;1.33;;
65150;SDS011;51918;51.856;0.150;2022-09-09T13:00:03;2.63;;;1.25;;
65150;SDS011;51918;51.856;0.150;2022-09-09T13:05:13;3.55;;;1.60;;
65150;SDS011;51918;51.856;0.150;2022-09-09T13:10:21;3.78;;;1.30;;
65150;SDS011;51918;51.856;0.150;2022-09-09T13:15:26;2.50;;;1.30;;
65150;SDS011;51918;51.856;0.150;2022-09-09T13:20:29;3.88;;;1.55;;
65150;SDS011;51918;51.856;0.150;2022-09-09T13:25:31;3.67;;;1.70;;
65150;SDS011;51918;51.856;0.150;2022-09-09T13:30:32;2.60;;;1.60;;
65150;SDS011;51918;51.856;0.150;2022-09-09T13:35:34;4.18;;;2.17;;
65150;SDS011;51918;51.856;0.150;2022-09-09T13:40:53;4.13;;;2.00;;
65150;SDS011;51918;51.856;0.150;2022-09-09T13:45:57;4.13;;;2.20;;
65150;SDS011;51918;51.856;0.150;2022-09-09T13:51:00;4.47;;;2.45;;
65150;SDS011;51918;51.856;0.150;2022-09-09T13:56:03;3.65;;;2.30;;
65150;SDS011;51918;51.856;0.150;2022-09-09T14:01:04;5.22;;;2.60;;
65150;SDS011;51918;51.856;0.150;2022-09-09T14:06:04;4.75;;;2.65;;
65150;SDS011;51918;51.856;0.150;2022-09-09T14:11:07;5.20;;;3.00;;
65150;SDS011;51918;51.856;0.150;2022-09-09T14:16:11;3.75;;;2.42;;
65150;SDS011;51918;51.856;0.150;2022-09-09T14:21:11;5.90;;;3.17;;
65150;SDS011;51918;51.856;0.150;2022-09-09T14:26:13;6.68;;;3.20;;
65150;SDS011;51918;51.856;0.150;2022-09-09T14:31:14;7.28;;;3.67;;
65150;SDS011;51918;51.856;0.150;2022-09-09T14:36:15;5.57;;;3.00;;
65150;SDS011;51918;51.856;0.150;2022-09-09T14:41:18;5.72;;;3.00;;
65150;SDS011;51918;51.856;0.150;2022-09-09T14:46:19;6.30;;;3.10;;
65150;SDS011;51918;51.856;0.150;2022-09-09T14:51:21;5.93;;;3.97;;
65150;SDS011;51918;51.856;0.150;2022-09-09T14:56:25;5.95;;;3.47;;
65150;SDS011;51918;51.856;0.150;2022-09-09T15:01:27;4.45;;;2.72;;
65150;SDS011;51918;51.856;0.150;2022-09-09T15:06:31;5.70;;;2.70;;
65150;SDS011;51918;51.856;0.150;2022-09-09T15:11:35;5.93;;;2.42;;
65150;SDS011;51918;51.856;0.150;2022-09-09T15:16:37;5.13;;;2.13;;
65150;SDS011;51918;51.856;0.150;2022-09-09T15:21:39;5.47;;;2.45;;
65150;SDS011;51918;51.856;0.150;2022-09-09T15:26:41;4.80;;;2.60;;
65150;SDS011;51918;51.856;0.150;2022-09-09T15:31:41;4.28;;;2.30;;
65150;SDS011;51918;51.856;0.150;2022-09-09T15:36:42;4.25;;;2.45;;
65150;SDS011;51918;51.856;0.150;2022-09-09T15:41:46;3.17;;;1.63;;
65150;SDS011;51918;51.856;0.150;2022-09-09T15:46:48;5.68;;;2.08;;
65150;SDS011;51918;51.856;0.150;2022-09-09T15:51:50;8.35;;;2.25;;
65150;SDS011;51918;51.856;0.150;2022-09-09T15:56:54;3.63;;;2.10;;
65150;SDS011;51918;51.856;0.150;2022-09-09T16:01:57;5.40;;;2.20;;
65150;SDS011;51918;51.856;0.150;2022-09-09T16:06:58;4.43;;;2.10;;
65150;SDS011;51918;51.856;0.150;2022-09-09T16:12:02;6.85;;;1.63;;
65150;SDS011;51918;51.856;0.150;2022-09-09T16:17:04;2.42;;;1.33;;
65150;SDS011;51918;51.856;0.150;2022-09-09T16:22:05;3.22;;;1.50;;
65150;SDS011;51918;51.856;0.150;2022-09-09T16:27:07;2.40;;;1.50;;
65150;SDS011;51918;51.856;0.150;2022-09-09T16:32:08;3.20;;;1.67;;
65150;SDS011;51918;51.856;0.150;2022-09-09T16:37:08;3.17;;;1.50;;
65150;SDS011;51918;51.856;0.150;2022-09-09T16:42:10;4.53;;;2.00;;
65150;SDS011;51918;51.856;0.150;2022-09-09T16:47:11;4.45;;;2.10;;
65150;SDS011;51918;51.856;0.150;2022-09-09T16:52:11;5.13;;;2.30;;
65150;SDS011;51918;51.856;0.150;2022-09-09T16:57:13;5.05;;;2.55;;
65150;SDS011;51918;51.856;0.150;2022-09-09T17:02:14;6.03;;;2.25;;
65150;SDS011;51918;51.856;0.150;2022-09-09T17:07:14;4.30;;;2.25;;
65150;SDS011;51918;51.856;0.150;2022-09-09T17:12:16;5.63;;;2.53;;
65150;SDS011;51918;51.856;0.150;2022-09-09T17:17:17;6.63;;;1.90;;
65150;SDS011;51918;51.856;0.150;2022-09-09T17:22:18;3.85;;;2.08;;
65150;SDS011;51918;51.856;0.150;2022-09-09T17:27:20;5.05;;;2.63;;
65150;SDS011;51918;51.856;0.150;2022-09-09T17:32:20;4.90;;;2.50;;
65150;SDS011;51918;51.856;0.150;2022-09-09T17:37:21;4.97;;;2.05;;
65150;SDS011;51918;51.856;0.150;2022-09-09T17:42:23;4.82;;;2.60;;
65150;SDS011;51918;51.856;0.150;2022-09-09T17:47:24;5.03;;;2.58;;
65150;SDS011;51918;51.856;0.150;2022-09-09T17:52:24;6.43;;;3.05;;
65150;SDS011;51918;51.856;0.150;2022-09-09T17:57:26;4.47;;;2.65;;
65150;SDS011;51918;51.856;0.150;2022-09-09T18:02:27;7.05;;;2.75;;
65150;SDS011;51918;51.856;0.150;2022-09-09T18:07:27;6.43;;;2.83;;
65150;SDS011;51918;51.856;0.150;2022-09-09T18:12:29;4.05;;;2.13;;
65150;SDS011;51918;51.856;0.150;2022-09-09T18:17:30;6.68;;;2.50;;
65150;SDS011;51918;51.856;0.150;2022-09-09T18:22:30;5.22;;;2.38;;
65150;SDS011;51918;51.856;0.150;2022-09-09T18:27:33;5.45;;;2.33;;
65150;SDS011;51918;51.856;0.150;2022-09-09T18:32:34;4.43;;;2.42;;
65150;SDS011;51918;51.856;0.150;2022-09-09T18:37:34;4.15;;;2.20;;
65150;SDS011;51918;51.856;0.150;2022-09-09T18:42:36;4.40;;;2.42;;
65150;SDS011;51918;51.856;0.150;2022-09-09T18:47:37;4.20;;;2.00;;
65150;SDS011;51918;51.856;0.150;2022-09-09T18:57:39;3.67;;;1.83;;
65150;SDS011;51918;51.856;0.150;2022-09-09T19:02:40;3.78;;;2.28;;
65150;SDS011;51918;51.856;0.150;2022-09-09T19:12:42;4.90;;;2.10;;
65150;SDS011;51918;51.856;0.150;2022-09-09T19:17:43;3.85;;;2.22;;
65150;SDS011;51918;51.856;0.150;2022-09-09T19:27:45;7.33;;;3.77;;
65150;SDS011;51918;51.856;0.150;2022-09-09T19:32:46;5.15;;;2.90;;
65150;SDS011;51918;51.856;0.150;2022-09-09T19:42:48;6.25;;;3.00;;
65150;SDS011;51918;51.856;0.150;2022-09-09T19:47:48;7.93;;;2.80;;
65150;SDS011;51918;51.856;0.150;2022-09-09T19:52:49;6.25;;;2.97;;
65150;SDS011;51918;51.856;0.150;2022-09-09T19:57:51;5.72;;;3.28;;
65150;SDS011;51918;51.856;0.150;2022-09-09T20:02:51;6.05;;;3.17;;
65150;SDS011;51918;51.856;0.150;2022-09-09T20:07:52;6.40;;;2.95;;
65150;SDS011;51918;51.856;0.150;2022-09-09T20:12:54;6.53;;;3.15;;
65150;SDS011;51918;51.856;0.150;2022-09-09T20:17:54;7.70;;;3.83;;
65150;SDS011;51918;51.856;0.150;2022-09-09T20:22:55;6.43;;;3.30;;
65150;SDS011;51918;51.856;0.150;2022-09-09T20:27:57;8.77;;;3.72;;
65150;SDS011;51918;51.856;0.150;2022-09-09T20:32:57;5.55;;;3.85;;
65150;SDS011;51918;51.856;0.150;2022-09-09T20:37:58;8.25;;;4.20;;
65150;SDS011;51918;51.856;0.150;2022-09-09T20:43:00;8.40;;;4.25;;
65150;SDS011;51918;51.856;0.150;2022-09-09T20:48:01;6.07;;;3.80;;
65150;SDS011;51918;51.856;0.150;2022-09-09T20:53:02;7.15;;;4.13;;
65150;SDS011;51918;51.856;0.150;2022-09-09T20:58:04;7.57;;;4.22;;
65150;SDS011;51918;51.856;0.150;2022-09-09T21:03:04;7.72;;;4.35;;
65150;SDS011;51918;51.856;0.150;2022-09-09T21:08:05;4.18;;;3.03;;
65150;SDS011;51918;51.856;0.150;2022-09-09T21:13:07;3.85;;;2.28;;
65150;SDS011;51918;51.856;0.150;2022-09-09T21:18:07;6.88;;;2.50;;
65150;SDS011;51918;51.856;0.150;2022-09-09T21:23:08;5.97;;;3.05;;
65150;SDS011;51918;51.856;0.150;2022-09-09T21:28:10;5.63;;;2.58;;
65150;SDS011;51918;51.856;0.150;2022-09-09T21:33:11;6.85;;;3.10;;
65150;SDS011;51918;51.856;0.150;2022-09-09T21:43:15;6.78;;;3.88;;
65150;SDS011;51918;51.856;0.150;2022-09-09T21:48:17;6.35;;;3.50;;
65150;SDS011;51918;51.856;0.150;2022-09-09T21:58:19;8.93;;;5.22;;
65150;SDS011;51918;51.856;0.150;2022-09-09T22:03:20;9.50;;;6.30;;
65150;SDS011;51918;51.856;0.150;2022-09-09T22:08:21;13.30;;;7.80;;
65150;SDS011;51918;51.856;0.150;2022-09-09T22:18:23;10.95;;;6.35;;
65150;SDS011;51918;51.856;0.150;2022-09-09T22:23:23;9.77;;;6.32;;
65150;SDS011;51918;51.856;0.150;2022-09-09T22:28:26;10.32;;;7.07;;
65150;SDS011;51918;51.856;0.150;2022-09-09T22:33:26;10.07;;;7.30;;
65150;SDS011;51918;51.856;0.150;2022-09-09T22:43:29;10.50;;;6.33;;
65150;SDS011;51918;51.856;0.150;2022-09-09T22:48:31;11.07;;;6.13;;
65150;SDS011;51918;51.856;0.150;2022-09-09T22:53:32;14.68;;;7.85;;
65150;SDS011;51918;51.856;0.150;2022-09-09T22:58:35;16.73;;;10.77;;
65150;SDS011;51918;51.856;0.150;2022-09-09T23:03:35;15.13;;;9.18;;
65150;SDS011;51918;51.856;0.150;2022-09-09T23:08:37;14.52;;;9.20;;
65150;SDS011;51918;51.856;0.150;2022-09-09T23:13:39;12.32;;;8.40;;
65150;SDS011;51918;51.856;0.150;2022-09-09T23:18:41;11.32;;;6.30;;
65150;SDS011;51918;51.856;0.150;2022-09-09T23:23:43;12.15;;;7.15;;
65150;SDS011;51918;51.856;0.150;2022-09-09T23:28:46;11.18;;;6.20;;
65150;SDS011;51918;51.856;0.150;2022-09-09T23:33:47;13.27;;;5.80;;
65150;SDS011;51918;51.856;0.150;2022-09-09T23:38:48;12.10;;;6.38;;
65150;SDS011;51918;51.856;0.150;2022-09-09T23:43:51;13.43;;;6.28;;
65150;SDS011;51918;51.856;0.150;2022-09-09T23:48:52;18.10;;;7.65;;
65150;SDS011;51918;51.856;0.150;2022-09-09T23:53:53;14.70;;;7.18;;
65150;SDS011;51918;51.856;0.150;2022-09-09T23:58:56;15.55;;;9.05;;
